Weather at Memorial Field

Public forecast

Using degrees Fahrenheit for public forecast. Weather courtesy of forecast.io.

Current aviation weather report (METAR) for Memorial Field

Retrieved 2022/05/23 15:53 UTC (53 minutes ago):

KHOT 231553Z AUTO 09005KT 10SM OVC018 17/12 A3015 RMK AO2 SLP207 T01720117

Aviation forecast (TAF) for Memorial Field

Retrieved 2022/05/23 12:22 UTC (4 hours ago):

TAF KHOT 231120Z 2312/2412 VRB06KT P6SM OVC015 FM231800 07007KT P6SM BKN040 OVC100 FM240600 09005KT P6SM VCSH BKN015